createdAt,value
2018-09-03T00:31:31.661Z,58.8
2018-09-03T00:32:20.989Z,58.8
2018-09-03T00:33:11.627Z,58.8
2018-09-03T00:34:01.913Z,58.8
2018-09-03T00:34:51.190Z,58.8
2018-09-03T00:35:41.508Z,58.8
2018-09-03T00:36:32.096Z,58.8
2018-09-03T00:37:21.356Z,58.8
2018-09-03T00:38:11.970Z,58.8
2018-09-03T00:39:01.218Z,58.8
2018-09-03T00:39:51.541Z,58.8
2018-09-03T00:40:42.193Z,58.8
2018-09-03T00:41:31.963Z,58.8
2018-09-03T00:42:22.073Z,58.8
2018-09-03T00:43:11.855Z,58.8
2018-09-03T00:44:01.905Z,58.8
2018-09-03T00:44:52.473Z,58.8
2018-09-03T00:45:42.551Z,58.8
2018-09-03T00:46:32.043Z,58.8
2018-09-03T00:47:22.953Z,58.7
2018-09-03T00:48:12.553Z,58.7
2018-09-03T00:49:02.837Z,58.7
2018-09-03T00:49:52.636Z,58.7
2018-09-03T00:50:42.957Z,58.7
2018-09-03T00:51:32.463Z,58.6
2018-09-03T00:52:23.325Z,58.6
2018-09-03T00:53:13.405Z,58.6
2018-09-03T00:54:02.372Z,58.6
2018-09-03T00:54:53.538Z,58.6
2018-09-03T00:55:42.753Z,58.6
2018-09-03T00:56:33.427Z,58.6
2018-09-03T01:04:03.450Z,58.5
2018-09-03T01:04:54.013Z,58.5
2018-09-03T01:05:43.857Z,58.5
2018-09-03T01:06:33.656Z,58.5
2018-09-03T01:07:25.005Z,58.4
2018-09-03T01:08:13.467Z,58.4
2018-09-03T01:09:03.828Z,58.5
2018-09-03T01:09:54.170Z,58.4
2018-09-03T01:10:44.240Z,58.4
2018-09-03T01:11:34.580Z,58.4
2018-09-03T01:12:25.155Z,58.4
2018-09-03T01:13:14.702Z,58.4
2018-09-03T01:14:04.557Z,58.4
2018-09-03T01:14:54.633Z,58.4
2018-09-03T01:15:45.069Z,58.4
2018-09-03T01:16:34.469Z,58.4
2018-09-03T01:17:24.757Z,58.4
2018-09-03T01:18:14.870Z,58.4
2018-09-03T01:19:04.338Z,58.4
2018-09-03T01:19:54.686Z,58.4
2018-09-03T01:20:45.039Z,58.4
2018-09-03T01:21:35.076Z,58.3
2018-09-03T01:22:25.381Z,58.4
2018-09-03T01:23:15.729Z,58.3
2018-09-03T01:24:05.279Z,58.3
2018-09-03T01:24:55.294Z,58.3
2018-09-03T01:25:44.859Z,58.3
2018-09-03T01:26:35.191Z,58.3
2018-09-03T01:27:25.548Z,58.3
2018-09-03T01:28:15.008Z,58.3
2018-09-03T01:29:05.670Z,58.3
2018-09-03T01:29:56.046Z,58.3
2018-09-03T01:31:00.265Z,58.3
2018-09-03T01:31:50.491Z,58.3
2018-09-03T01:32:26.194Z,58.3
2018-09-03T01:33:30.626Z,58.3
2018-09-03T01:34:06.321Z,58.3
2018-09-03T01:34:56.326Z,58.2
2018-09-03T01:35:46.133Z,58.2
2018-09-03T01:36:36.525Z,58.2
2018-09-03T01:37:26.303Z,58.2
2018-09-03T01:38:16.377Z,58.2
2018-09-03T01:39:20.552Z,58.2
2018-09-03T01:39:56.778Z,58.2
2018-09-03T01:40:46.262Z,58.2
2018-09-03T01:41:36.364Z,58.1
2018-09-03T01:42:27.487Z,58.1
2018-09-03T01:43:17.277Z,58.1
2018-09-03T01:44:07.102Z,58.1
2018-09-03T01:44:57.080Z,58.1
2018-09-03T01:46:02.114Z,58.1
2018-09-03T01:46:37.719Z,58.1
2018-09-03T01:47:42.229Z,58.1
2018-09-03T01:48:17.165Z,58.1
2018-09-03T01:49:06.975Z,58.1
2018-09-03T01:49:56.456Z,58.1
2018-09-03T01:51:02.476Z,58.1
2018-09-03T01:51:37.699Z,58.1
2018-09-03T01:52:43.086Z,58.1
2018-09-03T01:53:17.888Z,58.1
2018-09-03T01:54:07.780Z,58.1
2018-09-03T01:54:57.259Z,58
2018-09-03T01:55:48.248Z,58
2018-09-03T01:56:37.520Z,58
2018-09-03T01:57:27.773Z,58
2018-09-03T01:58:17.866Z,58
2018-09-03T01:59:08.163Z,58
2018-09-03T01:59:57.765Z,57.9
2018-09-03T02:00:48.560Z,57.9
2018-09-03T02:01:38.152Z,57.9
2018-09-03T02:02:28.932Z,57.9
2018-09-03T02:03:18.081Z,57.9
2018-09-03T02:04:08.381Z,57.9
2018-09-03T02:04:58.468Z,57.9
2018-09-03T02:05:49.163Z,57.9
2018-09-03T02:06:39.527Z,57.9
2018-09-03T02:07:28.920Z,57.9
2018-09-03T02:08:18.725Z,57.9
2018-09-03T02:09:23.407Z,57.9
2018-09-03T02:09:58.825Z,57.9
2018-09-03T02:10:48.893Z,57.9
2018-09-03T02:11:38.391Z,57.9
2018-09-03T02:12:29.300Z,57.9
2018-09-03T02:13:18.540Z,57.8
2018-09-03T02:14:09.685Z,57.8
2018-09-03T02:14:58.978Z,57.8
2018-09-03T02:15:49.318Z,57.8
2018-09-03T02:16:53.707Z,57.8
2018-09-03T02:17:29.757Z,57.8
2018-09-03T02:18:19.736Z,57.8
2018-09-03T02:19:59.309Z,57.8
2018-09-03T02:25:00.561Z,57.7
2018-09-03T02:26:40.348Z,57.7
2018-09-03T02:27:30.712Z,57.7
2018-09-03T02:28:20.769Z,57.7
2018-09-03T02:29:10.553Z,57.7
2018-09-03T02:30:15.214Z,57.7
2018-09-03T02:30:49.926Z,57.7
2018-09-03T02:31:55.132Z,57.7
2018-09-03T02:32:30.567Z,57.6
2018-09-03T02:33:20.404Z,57.6
2018-09-03T02:34:10.433Z,57.6
2018-09-03T02:35:01.034Z,57.6
2018-09-03T02:35:50.761Z,57.6
2018-09-03T02:36:41.113Z,57.6
2018-09-03T02:37:30.971Z,57.6
2018-09-03T02:38:21.225Z,57.6
2018-09-03T02:39:11.339Z,57.6
2018-09-03T02:40:15.508Z,57.6
2018-09-03T02:40:51.177Z,57.6
2018-09-03T02:41:55.926Z,57.6
2018-09-03T02:42:31.045Z,57.6
2018-09-03T02:43:21.716Z,57.6
2018-09-03T02:44:12.144Z,57.6
2018-09-03T02:45:01.493Z,57.6
2018-09-03T02:45:51.871Z,57.5
2018-09-03T02:46:41.680Z,57.5
2018-09-03T02:47:32.772Z,57.5
2018-09-03T02:48:22.055Z,57.5
2018-09-03T02:49:26.713Z,57.5
2018-09-03T02:50:02.623Z,57.5
2018-09-03T02:50:51.174Z,57.5
2018-09-03T02:51:41.746Z,57.5
2018-09-03T02:52:32.682Z,57.4
2018-09-03T02:53:21.622Z,57.4
2018-09-03T02:54:12.187Z,57.4
2018-09-03T02:55:01.487Z,57.4
2018-09-03T02:55:52.585Z,57.4
2018-09-03T02:56:42.886Z,57.4
2018-09-03T02:57:32.758Z,57.4
2018-09-03T02:58:22.727Z,57.4
2018-09-03T02:59:12.282Z,57.4
2018-09-03T03:00:02.436Z,57.4
2018-09-03T03:00:53.015Z,57.4
2018-09-03T03:01:42.547Z,57.4
2018-09-03T03:02:33.757Z,57.4
2018-09-03T03:03:22.848Z,57.3
2018-09-03T03:04:12.709Z,57.3
2018-09-03T03:05:03.301Z,57.4
2018-09-03T03:05:53.437Z,57.3
2018-09-03T03:06:42.912Z,57.3
2018-09-03T03:07:33.314Z,57.3
2018-09-03T03:08:23.201Z,57.3
2018-09-03T03:09:43.626Z,57.3
2018-09-03T03:10:03.175Z,57.3
2018-09-03T03:10:52.754Z,57.3
2018-09-03T03:11:44.231Z,57.3
2018-09-03T03:12:33.409Z,57.3
2018-09-03T03:13:24.391Z,57.3
2018-09-03T03:14:14.141Z,57.3
2018-09-03T03:15:04.454Z,57.3
2018-09-03T03:15:53.934Z,57.3
2018-09-03T03:16:43.743Z,57.3
2018-09-03T03:17:34.011Z,57.3
2018-09-03T03:18:24.615Z,57.3
2018-09-03T03:19:14.439Z,57.2
2018-09-03T03:20:04.289Z,57.2
2018-09-03T03:20:54.301Z,57.2
2018-09-03T03:21:43.552Z,57.2
2018-09-03T03:22:34.356Z,57.2
2018-09-03T03:23:24.240Z,57.2
2018-09-03T03:24:14.004Z,57.1
2018-09-03T03:25:04.353Z,57.1
2018-09-03T03:25:54.693Z,57.1
2018-09-03T03:26:44.750Z,57.1
2018-09-03T03:27:35.157Z,57.1
2018-09-03T03:28:24.605Z,57.1
2018-09-03T03:29:14.945Z,57.1
2018-09-03T03:30:04.778Z,57.1
2018-09-03T03:30:54.805Z,57.1
2018-09-03T03:31:45.140Z,57.1
2018-09-03T03:32:34.825Z,57.1
2018-09-03T03:33:25.581Z,57.1
2018-09-03T03:34:15.625Z,57.1
2018-09-03T03:35:05.392Z,57.1
2018-09-03T03:35:55.715Z,57
2018-09-03T03:36:45.806Z,57.1
2018-09-03T03:37:35.592Z,57
2018-09-03T03:38:25.662Z,57
2018-09-03T03:39:15.988Z,57.1
2018-09-03T03:40:05.243Z,57
2018-09-03T03:40:56.082Z,57
2018-09-03T03:41:46.466Z,57
2018-09-03T03:42:35.707Z,57
2018-09-03T03:43:26.063Z,57
2018-09-03T03:44:16.383Z,56.9
2018-09-03T03:45:06.184Z,57
2018-09-03T03:45:56.203Z,56.9
2018-09-03T03:46:46.559Z,56.9
2018-09-03T03:47:36.338Z,56.9
2018-09-03T03:48:26.770Z,56.9
2018-09-03T03:49:15.956Z,56.9
2018-09-03T03:50:06.574Z,56.9
2018-09-03T03:50:56.856Z,56.9
2018-09-03T03:51:46.421Z,56.9
2018-09-03T03:52:36.745Z,56.9
2018-09-03T03:53:26.258Z,56.9
2018-09-03T03:54:16.896Z,56.9
2018-09-03T03:55:07.976Z,56.9
2018-09-03T03:55:57.341Z,56.9
2018-09-03T03:56:47.055Z,56.9
2018-09-03T03:57:37.161Z,56.9
2018-09-03T03:58:28.069Z,56.9
2018-09-03T03:59:17.958Z,56.8
2018-09-03T04:00:07.933Z,56.8
2018-09-03T04:00:57.720Z,56.8
2018-09-03T04:01:48.176Z,56.8
2018-09-03T04:02:38.045Z,56.8
2018-09-03T04:03:27.596Z,56.8
2018-09-03T04:04:18.679Z,56.8
2018-09-03T04:05:07.771Z,56.8
2018-09-03T04:05:58.250Z,56.8
2018-09-03T04:06:48.017Z,56.8
2018-09-03T04:07:38.203Z,56.8
2018-09-03T04:08:27.152Z,56.8
2018-09-03T04:09:18.138Z,56.8
2018-09-03T04:10:07.571Z,56.8
2018-09-03T04:10:58.175Z,56.8
2018-09-03T04:11:48.309Z,56.8
2018-09-03T04:12:38.827Z,56.7
2018-09-03T04:13:28.655Z,56.7
2018-09-03T04:14:18.499Z,56.7
2018-09-03T04:15:08.782Z,56.7
2018-09-03T04:15:58.912Z,56.7
2018-09-03T04:16:48.937Z,56.7
2018-09-03T04:17:38.139Z,56.7
2018-09-03T04:18:29.272Z,56.6
2018-09-03T04:19:19.134Z,56.7
2018-09-03T04:20:08.392Z,56.6
2018-09-03T04:20:59.266Z,56.6
2018-09-03T04:21:48.731Z,56.6
2018-09-03T04:22:39.075Z,56.6
2018-09-03T04:23:31.568Z,56.6
2018-09-03T04:24:19.257Z,56.6
2018-09-03T04:25:09.664Z,56.6
2018-09-03T04:25:59.359Z,56.6
2018-09-03T04:26:48.561Z,56.6
2018-09-03T04:27:39.223Z,56.6
2018-09-03T04:28:29.912Z,56.6
2018-09-03T04:29:19.347Z,56.6
2018-09-03T04:30:09.175Z,56.6
2018-09-03T04:30:59.755Z,56.6
2018-09-03T04:31:49.824Z,56.5
2018-09-03T04:32:39.961Z,56.6
2018-09-03T04:33:31.355Z,56.5
2018-09-03T04:34:20.696Z,56.5
2018-09-03T04:35:10.086Z,56.5
2018-09-03T04:36:00.144Z,56.5
2018-09-03T04:36:50.689Z,56.5
2018-09-03T04:37:39.718Z,56.5
2018-09-03T04:38:30.588Z,56.4
2018-09-03T04:39:20.681Z,56.4
2018-09-03T04:40:09.887Z,56.4
2018-09-03T04:41:00.615Z,56.4
2018-09-03T04:41:50.291Z,56.4
2018-09-03T04:42:40.752Z,56.4
2018-09-03T05:00:18.866Z,56.3
2018-09-03T05:01:08.847Z,56.3
2018-09-03T05:01:58.114Z,56.3
2018-09-03T05:02:48.975Z,56.3
2018-09-03T05:03:38.013Z,56.3
2018-09-03T05:04:29.117Z,56.3
2018-09-03T05:05:19.180Z,56.2
2018-09-03T05:06:09.672Z,56.3
2018-09-03T05:06:58.690Z,56.2
2018-09-03T05:07:49.336Z,56.2
2018-09-03T05:08:39.405Z,56.2
2018-09-03T05:09:29.175Z,56.2
2018-09-03T05:10:19.822Z,56.2
2018-09-03T05:11:09.016Z,56.2
2018-09-03T05:12:00.222Z,56.2
2018-09-03T05:12:48.859Z,56.1
2018-09-03T05:13:39.293Z,56.1
2018-09-03T05:14:29.276Z,56.1
2018-09-03T05:15:19.629Z,56.1
2018-09-03T05:16:09.519Z,56.1
2018-09-03T05:16:59.484Z,56.1
2018-09-03T05:17:49.544Z,56.1
2018-09-03T05:18:40.159Z,56.1
2018-09-03T05:19:30.477Z,56.1
2018-09-03T05:20:19.256Z,56.1
2018-09-03T05:21:09.295Z,56.1
2018-09-03T05:22:00.141Z,56.1
2018-09-03T05:22:50.168Z,56.1
2018-09-03T05:23:40.279Z,56.1
2018-09-03T05:24:30.353Z,56.1
2018-09-03T05:25:20.456Z,56.1
2018-09-03T05:26:10.523Z,56.1
2018-09-03T05:27:00.538Z,56
2018-09-03T05:27:49.905Z,56
2018-09-03T05:28:39.879Z,56
2018-09-03T05:29:31.013Z,56
2018-09-03T05:30:20.498Z,56
2018-09-03T05:31:11.543Z,56
2018-09-03T05:32:00.879Z,56
2018-09-03T05:32:51.260Z,56
2018-09-03T05:33:41.036Z,55.9
2018-09-03T05:34:31.105Z,55.9
2018-09-03T05:35:21.273Z,55.9
2018-09-03T05:36:10.791Z,55.9
2018-09-03T05:37:01.626Z,55.9
2018-09-03T05:37:51.380Z,55.9
2018-09-03T05:38:41.170Z,55.9
2018-09-03T05:39:31.601Z,55.9
2018-09-03T05:40:22.226Z,55.9
2018-09-03T05:41:12.935Z,55.9
2018-09-03T05:42:02.103Z,55.9
2018-09-03T05:42:52.214Z,55.9
2018-09-03T05:43:43.652Z,55.9
2018-09-03T05:44:31.809Z,55.9
2018-09-03T05:45:22.442Z,55.9
2018-09-03T05:46:13.104Z,55.9
2018-09-03T05:47:01.837Z,55.8
2018-09-03T05:47:52.310Z,55.8
2018-09-03T05:48:42.626Z,55.8
2018-09-03T05:49:32.403Z,55.8
2018-09-03T05:50:23.665Z,55.8
2018-09-03T05:51:12.815Z,55.8
2018-09-03T05:52:02.194Z,55.8
2018-09-03T05:52:52.527Z,55.8
2018-09-03T05:53:43.143Z,55.8
2018-09-03T05:54:32.938Z,55.8
2018-09-03T05:55:22.990Z,55.8
2018-09-03T05:56:12.863Z,55.8
2018-09-03T05:57:03.140Z,55.8
2018-09-03T05:57:52.368Z,55.8
2018-09-03T05:58:43.036Z,55.8
2018-09-03T05:59:33.436Z,55.7
2018-09-03T06:00:22.947Z,55.7
2018-09-03T06:01:13.494Z,55.7
2018-09-03T06:02:03.563Z,55.7
2018-09-03T06:02:53.099Z,55.7
2018-09-03T06:03:42.877Z,55.7
2018-09-03T06:04:33.723Z,55.7
2018-09-03T06:05:22.839Z,55.7
2018-09-03T06:06:13.831Z,55.7
2018-09-03T06:07:03.586Z,55.7
2018-09-03T06:07:53.952Z,55.7
2018-09-03T06:08:43.739Z,55.6
2018-09-03T06:09:33.250Z,55.6
2018-09-03T06:10:24.533Z,55.6
2018-09-03T06:11:15.816Z,55.6
2018-09-03T06:12:04.020Z,55.6
2018-09-03T06:12:54.077Z,55.6
2018-09-03T06:13:44.115Z,55.6
2018-09-03T06:14:34.484Z,55.6
2018-09-03T06:15:24.276Z,55.6
2018-09-03T06:16:14.338Z,55.6
2018-09-03T06:17:04.708Z,55.6
2018-09-03T06:17:55.133Z,55.6
2018-09-03T06:18:44.851Z,55.6
2018-09-03T06:19:34.591Z,55.6
2018-09-03T06:20:24.920Z,55.6
2018-09-03T06:21:15.223Z,55.6
2018-09-03T06:22:05.103Z,55.5
2018-09-03T06:22:54.910Z,55.6
2018-09-03T06:23:45.225Z,55.5
2018-09-03T06:24:35.316Z,55.5
2018-09-03T06:25:25.302Z,55.5
2018-09-03T06:26:15.719Z,55.5
2018-09-03T06:27:05.808Z,55.5
2018-09-03T06:27:54.688Z,55.5
2018-09-03T06:28:45.345Z,55.5
2018-09-03T06:29:35.645Z,55.4
2018-09-03T06:30:25.456Z,55.4
2018-09-03T06:31:15.765Z,55.4
2018-09-03T06:32:05.010Z,55.4
2018-09-03T06:32:56.185Z,55.4
2018-09-03T06:33:45.106Z,55.4
2018-09-03T06:34:35.756Z,55.4
2018-09-03T06:35:26.080Z,55.4
2018-09-03T06:36:15.870Z,55.4
2018-09-03T06:37:06.564Z,55.4
2018-09-03T06:37:56.263Z,55.4
2018-09-03T06:38:45.576Z,55.4
2018-09-03T06:39:35.072Z,55.4
2018-09-03T06:40:25.239Z,55.4
2018-09-03T06:41:15.783Z,55.4
2018-09-03T06:42:06.867Z,55.4
2018-09-03T06:42:56.367Z,55.4
2018-09-03T06:43:45.884Z,55.4
2018-09-03T06:44:36.792Z,55.4
2018-09-03T06:45:26.297Z,55.3
2018-09-03T06:46:16.357Z,55.3
2018-09-03T06:47:07.029Z,55.3
2018-09-03T06:47:56.773Z,55.3
2018-09-03T06:48:46.877Z,55.3
2018-09-03T06:49:36.865Z,55.3
2018-09-03T06:50:27.287Z,55.3
2018-09-03T06:51:17.263Z,55.3
2018-09-03T06:52:07.734Z,55.3
2018-09-03T06:52:56.900Z,55.3
2018-09-03T06:53:47.658Z,55.3
2018-09-03T06:54:37.527Z,55.3
2018-09-03T06:55:27.309Z,55.3
2018-09-03T06:56:17.653Z,55.3
2018-09-03T06:57:08.491Z,55.3
2018-09-03T06:57:57.807Z,55.3
2018-09-03T06:58:47.584Z,55.2
2018-09-03T06:59:38.487Z,55.2
2018-09-03T07:00:27.698Z,55.2
2018-09-03T07:01:18.097Z,55.2
2018-09-03T07:02:08.333Z,55.2
2018-09-03T07:02:58.161Z,55.2
2018-09-03T07:03:48.244Z,55.2
2018-09-03T07:04:38.036Z,55.2
2018-09-03T07:05:27.530Z,55.2
2018-09-03T07:06:18.454Z,55.1
2018-09-03T07:07:08.506Z,55.2
2018-09-03T07:07:57.375Z,55.2
2018-09-03T07:08:48.611Z,55.1
2018-09-03T07:09:38.392Z,55
2018-09-03T07:10:28.740Z,54.9
2018-09-03T07:11:18.543Z,54.8
2018-09-03T07:12:08.584Z,54.8
2018-09-03T07:12:58.999Z,54.7
2018-09-03T07:13:48.929Z,54.7
2018-09-03T07:14:38.292Z,54.6
2018-09-03T07:15:28.402Z,54.6
2018-09-03T07:16:18.434Z,54.6
2018-09-03T07:17:08.802Z,54.6
2018-09-03T07:17:59.302Z,54.6
2018-09-03T07:18:50.425Z,54.6
2018-09-03T07:19:39.459Z,54.6
2018-09-03T07:20:29.230Z,54.6
2018-09-03T07:21:19.627Z,54.6
2018-09-03T07:22:09.364Z,54.5
2018-09-03T07:22:59.426Z,54.5
2018-09-03T07:23:49.501Z,54.5
2018-09-03T07:24:39.861Z,54.5
2018-09-03T07:25:29.619Z,54.4
2018-09-03T07:26:19.136Z,54.4
2018-09-03T07:27:10.040Z,54.4
2018-09-03T07:28:00.101Z,54.4
2018-09-03T07:28:50.875Z,54.4
2018-09-03T07:29:39.949Z,54.4
2018-09-03T07:30:29.731Z,54.4
2018-09-03T07:31:19.516Z,54.4
2018-09-03T07:32:09.851Z,54.4
2018-09-03T07:33:00.226Z,54.4
2018-09-03T07:33:50.240Z,54.4
2018-09-03T07:34:40.348Z,54.4
2018-09-03T07:35:30.631Z,54.4
2018-09-03T07:36:20.515Z,54.3
2018-09-03T07:37:10.533Z,54.3
2018-09-03T07:38:00.875Z,54.3
2018-09-03T07:38:50.941Z,54.3
2018-09-03T07:39:40.727Z,54.3
2018-09-03T07:40:30.512Z,54.3
2018-09-03T07:41:20.571Z,54.3
2018-09-03T07:42:11.223Z,54.3
2018-09-03T07:43:01.061Z,54.3
2018-09-03T07:43:51.695Z,54.3
2018-09-03T07:44:41.136Z,54.3
2018-09-03T07:45:30.891Z,54.3
2018-09-03T07:46:20.986Z,54.3
2018-09-03T07:47:11.323Z,54.3
2018-09-03T07:48:01.097Z,54.3
2018-09-03T07:48:51.416Z,54.2
2018-09-03T07:49:41.840Z,54.2
2018-09-03T07:50:31.845Z,54.2
2018-09-03T07:51:21.994Z,54.2
2018-09-03T07:52:11.520Z,54.2
2018-09-03T07:53:02.176Z,54.2
2018-09-03T07:53:51.885Z,54.2
2018-09-03T07:54:41.460Z,54.2
2018-09-03T07:55:32.042Z,54.1
2018-09-03T07:56:22.332Z,54.1
2018-09-03T07:57:12.549Z,54.1
2018-09-03T07:58:02.440Z,54.1
2018-09-03T07:58:52.615Z,54.1
2018-09-03T07:59:41.791Z,54.1
2018-09-03T08:00:31.586Z,54.1
2018-09-03T08:01:22.988Z,54.1
2018-09-03T08:02:12.553Z,54.1
2018-09-03T08:03:02.842Z,54.1
2018-09-03T08:03:52.349Z,54.1
2018-09-03T08:04:42.951Z,54.1
2018-09-03T08:05:32.223Z,54.1
2018-09-03T08:06:22.909Z,54.1
2018-09-03T08:07:13.320Z,54.1
2018-09-03T08:08:03.244Z,54
2018-09-03T08:08:53.310Z,54
2018-09-03T08:09:42.784Z,54
2018-09-03T08:10:33.126Z,54
2018-09-03T08:11:23.479Z,54
2018-09-03T08:12:13.251Z,54
2018-09-03T08:13:04.247Z,54
2018-09-03T08:13:53.417Z,54
2018-09-03T08:14:43.976Z,53.9
2018-09-03T08:15:33.620Z,53.9
2018-09-03T08:16:23.589Z,53.9
2018-09-03T08:17:13.406Z,53.9
2018-09-03T08:18:03.442Z,53.9
2018-09-03T08:18:53.769Z,53.9
2018-09-03T08:19:43.509Z,53.9
2018-09-03T08:20:34.274Z,53.9
2018-09-03T08:21:24.024Z,53.9
2018-09-03T08:22:14.354Z,53.9
2018-09-03T08:23:04.091Z,53.9
2018-09-03T08:23:54.433Z,53.8
2018-09-03T08:24:44.486Z,53.7
2018-09-03T08:25:34.810Z,53.7
2018-09-03T08:26:24.353Z,53.6
2018-09-03T08:27:14.148Z,53.6
2018-09-03T08:28:04.481Z,53.6
2018-09-03T08:28:54.561Z,53.6
2018-09-03T08:29:45.166Z,53.6
2018-09-03T08:30:34.915Z,53.6
2018-09-03T08:31:24.261Z,53.6
2018-09-03T08:32:14.523Z,53.5
2018-09-03T08:33:05.163Z,53.5
2018-09-03T08:33:55.238Z,53.5
2018-09-03T08:34:45.523Z,53.5
2018-09-03T08:35:35.431Z,53.5
2018-09-03T08:36:25.425Z,53.5
2018-09-03T08:37:14.643Z,53.5
2018-09-03T08:38:05.550Z,53.5
2018-09-03T08:38:55.631Z,53.6
2018-09-03T08:39:45.657Z,53.6
2018-09-03T08:40:35.460Z,53.7
2018-09-03T08:41:25.813Z,53.7
2018-09-03T08:42:15.570Z,53.7
2018-09-03T08:43:05.658Z,53.8
2018-09-03T08:43:55.709Z,53.8
2018-09-03T08:44:46.302Z,53.8
2018-09-03T08:45:36.335Z,53.8
2018-09-03T08:46:26.180Z,53.9
2018-09-03T08:47:15.999Z,53.9
2018-09-03T08:48:36.309Z,53.9
2018-09-03T08:48:56.219Z,53.9
2018-09-03T08:49:46.228Z,53.9
2018-09-03T08:50:36.917Z,54
2018-09-03T08:51:26.122Z,54
2018-09-03T08:52:16.452Z,54
2018-09-03T08:53:06.434Z,54.1
2018-09-03T08:53:56.516Z,54.1
2018-09-03T08:54:46.591Z,54.1
2018-09-03T08:55:36.617Z,54.2
2018-09-03T08:56:26.687Z,54.2
2018-09-03T08:57:17.068Z,54.3
2018-09-03T08:58:07.164Z,54.3
2018-09-03T09:14:48.762Z,54.9
2018-09-03T09:15:38.489Z,54.9
2018-09-03T09:16:29.111Z,55
2018-09-03T09:17:18.592Z,55
2018-09-03T09:18:09.303Z,55
2018-09-03T09:18:58.987Z,55.1
2018-09-03T09:19:49.618Z,55.1
2018-09-03T09:20:39.168Z,55.1
2018-09-03T09:21:29.202Z,55.2
2018-09-03T09:22:19.554Z,55.2
2018-09-03T09:23:09.636Z,55.3
2018-09-03T09:23:59.681Z,55.3
2018-09-03T09:24:49.771Z,55.3
2018-09-03T09:25:39.351Z,55.4
2018-09-03T09:26:29.589Z,55.4
2018-09-03T09:27:19.137Z,55.4
2018-09-03T09:28:09.749Z,55.5
2018-09-03T09:28:59.453Z,55.5
2018-09-03T09:29:49.859Z,55.6
2018-09-03T09:30:40.186Z,55.6
2018-09-03T09:31:30.245Z,55.6
2018-09-03T09:32:19.773Z,55.7
2018-09-03T09:33:10.418Z,55.8
2018-09-03T09:33:59.618Z,55.8
2018-09-03T09:34:50.315Z,55.8
2018-09-03T09:35:39.803Z,55.9
2018-09-03T09:36:29.800Z,55.9
2018-09-03T09:37:20.783Z,55.9
2018-09-03T09:38:10.499Z,56
2018-09-03T09:39:00.828Z,56.1
2018-09-03T09:39:51.165Z,56.1
2018-09-03T09:40:40.967Z,56.1
2018-09-03T09:41:31.042Z,56.2
2018-09-03T09:42:20.831Z,56.3
2018-09-03T09:43:12.067Z,56.3
2018-09-03T09:44:00.467Z,56.3
2018-09-03T09:44:51.026Z,56.3
2018-09-03T09:45:41.168Z,56.4
2018-09-03T09:46:31.494Z,56.4
2018-09-03T09:47:21.552Z,56.4
2018-09-03T09:48:11.025Z,56.4
2018-09-03T09:49:01.942Z,56.5
2018-09-03T09:49:51.954Z,56.5
2018-09-03T09:50:42.054Z,56.6
2018-09-03T09:51:31.307Z,56.6
2018-09-03T09:52:21.356Z,56.6
2018-09-03T09:53:11.949Z,56.7
2018-09-03T09:54:01.758Z,56.7
2018-09-03T09:54:52.844Z,56.8
2018-09-03T09:55:42.383Z,56.8
2018-09-03T09:56:31.759Z,56.8
2018-09-03T09:57:22.333Z,56.8
2018-09-03T09:58:12.073Z,56.9
2018-09-03T09:59:02.701Z,56.9
2018-09-03T09:59:52.208Z,57
2018-09-03T10:00:42.528Z,57
2018-09-03T10:01:32.045Z,57.1
2018-09-03T10:02:22.663Z,57.1
2018-09-03T10:03:12.147Z,57.1
2018-09-03T10:04:02.802Z,57.2
2018-09-03T10:04:52.360Z,57.3
2018-09-03T10:05:43.268Z,57.3
2018-09-03T10:06:33.060Z,57.4
2018-09-03T10:07:22.210Z,57.4
2018-09-03T10:08:12.588Z,57.4
2018-09-03T10:09:02.680Z,57.5
2018-09-03T10:09:52.425Z,57.6
2018-09-03T10:10:43.465Z,57.6
2018-09-03T10:11:33.073Z,57.6
2018-09-03T10:12:23.170Z,57.7
2018-09-03T10:13:13.523Z,57.8
2018-09-03T10:14:02.995Z,57.8
2018-09-03T10:14:53.156Z,57.9
2018-09-03T10:15:42.887Z,57.9
2018-09-03T10:16:33.617Z,57.9
2018-09-03T10:17:23.297Z,58
2018-09-03T10:18:13.959Z,58.1
2018-09-03T10:19:03.419Z,58.1
2018-09-03T10:19:54.027Z,58.1
2018-09-03T10:20:43.511Z,58.1
2018-09-03T10:21:33.862Z,58.2
2018-09-03T10:22:23.705Z,58.2
2018-09-03T10:23:13.736Z,58.2
2018-09-03T10:24:04.419Z,58.3
2018-09-03T10:24:53.677Z,58.3
2018-09-03T10:25:43.376Z,58.3
2018-09-03T10:26:34.264Z,58.3
2018-09-03T10:27:23.792Z,58.3
2018-09-03T10:28:14.114Z,58.3
2018-09-03T10:29:04.195Z,58.3
2018-09-03T10:29:54.294Z,58.3
2018-09-03T10:30:44.400Z,58.3
2018-09-03T10:31:34.681Z,58.4
2018-09-03T10:32:25.067Z,58.4
2018-09-03T10:33:14.529Z,58.4
2018-09-03T10:34:04.619Z,58.4
2018-09-03T10:34:54.636Z,58.4
2018-09-03T10:35:45.036Z,58.4
2018-09-03T10:36:35.409Z,58.4
2018-09-03T10:37:25.468Z,58.5
2018-09-03T10:38:15.482Z,58.5
2018-09-03T10:39:05.561Z,58.5
2018-09-03T10:39:55.611Z,58.5
2018-09-03T10:40:45.141Z,58.5
2018-09-03T10:41:35.504Z,58.5
2018-09-03T10:42:25.786Z,58.5
2018-09-03T10:43:15.308Z,58.5
2018-09-03T10:44:05.374Z,58.5
2018-09-03T10:44:55.461Z,58.5
2018-09-03T10:45:45.800Z,58.5
2018-09-03T10:46:35.911Z,58.5
2018-09-03T10:47:26.469Z,58.5
2018-09-03T10:48:16.315Z,58.5
2018-09-03T10:49:06.066Z,58.5
2018-09-03T10:49:55.870Z,58.5
2018-09-03T10:50:46.169Z,58.5
2018-09-03T10:51:36.292Z,58.5
2018-09-03T10:54:06.841Z,58.6
2018-09-03T10:54:56.519Z,58.6
2018-09-03T10:55:46.273Z,58.6
2018-09-03T10:56:36.647Z,58.7
2018-09-03T10:57:27.265Z,58.7
2018-09-03T10:58:17.069Z,58.7
2018-09-03T10:59:07.098Z,58.8
2018-09-03T10:59:56.914Z,58.8
2018-09-03T11:00:47.244Z,58.8
2018-09-03T11:01:36.727Z,58.8
2018-09-03T11:02:27.092Z,58.9
2018-09-03T11:03:16.599Z,58.9
2018-09-03T11:04:07.752Z,58.9
2018-09-03T11:04:57.043Z,58.9
2018-09-03T11:05:47.074Z,58.9
2018-09-03T11:06:37.199Z,59
2018-09-03T11:07:27.265Z,59
2018-09-03T11:08:17.248Z,59.1
2018-09-03T11:09:07.417Z,59.1
2018-09-03T11:09:57.707Z,59.1
2018-09-03T11:10:47.454Z,59.1
2018-09-03T11:11:37.814Z,59.1
2018-09-03T11:12:27.949Z,59.1
2018-09-03T11:13:17.979Z,59.2
2018-09-03T11:14:08.679Z,59.2
2018-09-03T11:14:58.354Z,59.2
2018-09-03T11:15:48.413Z,59.2
2018-09-03T11:16:38.472Z,59.2
2018-09-03T11:17:29.215Z,59.2
2018-09-03T11:18:18.343Z,59.2
2018-09-03T11:19:08.397Z,59.2
2018-09-03T11:19:59.518Z,59.2
2018-09-03T11:20:48.254Z,59.2
2018-09-03T11:21:40.675Z,59.2
2018-09-03T11:22:28.670Z,59.2
2018-09-03T11:23:18.472Z,59.2
2018-09-03T11:24:08.542Z,59.2
2018-09-03T11:24:58.832Z,59.2
2018-09-03T11:25:48.911Z,59.2
2018-09-03T11:26:38.959Z,59.2
2018-09-03T11:27:29.519Z,59.2
2018-09-03T11:28:18.838Z,59.2
2018-09-03T11:29:09.469Z,59.2
2018-09-03T11:29:58.948Z,59.3
2018-09-03T11:30:49.578Z,59.3
2018-09-03T11:31:39.341Z,59.3
2018-09-03T11:32:29.424Z,59.3
2018-09-03T11:33:19.780Z,59.3
2018-09-03T11:34:09.564Z,59.3
2018-09-03T11:35:00.027Z,59.3
2018-09-03T11:35:49.142Z,59.3
2018-09-03T11:36:39.786Z,59.3
2018-09-03T11:37:29.291Z,59.3
2018-09-03T11:38:20.436Z,59.3
2018-09-03T11:39:10.228Z,59.3
2018-09-03T11:40:00.043Z,59.3
2018-09-03T11:40:50.110Z,59.3
2018-09-03T11:41:39.855Z,59.3
2018-09-03T11:42:30.251Z,59.3
2018-09-03T11:43:21.081Z,59.3
2018-09-03T11:44:10.073Z,59.3
2018-09-03T11:45:00.416Z,59.3
2018-09-03T11:45:50.222Z,59.3
2018-09-03T11:46:40.823Z,59.3
2018-09-03T11:47:30.580Z,59.3
2018-09-03T11:48:20.693Z,59.3
2018-09-03T11:49:10.791Z,59.3
2018-09-03T11:50:01.083Z,59.3
2018-09-03T11:50:50.693Z,59.3
2018-09-03T11:51:40.403Z,59.3
2018-09-03T11:52:31.021Z,59.3
2018-09-03T11:53:20.206Z,59.3
2018-09-03T11:54:10.380Z,59.3
2018-09-03T11:55:00.355Z,59.4
2018-09-03T11:55:51.342Z,59.4
2018-09-03T11:56:40.842Z,59.4
2018-09-03T11:57:31.698Z,59.4
2018-09-03T11:58:21.273Z,59.4
2018-09-03T11:59:11.031Z,59.4
2018-09-03T12:00:01.897Z,59.4
2018-09-03T12:00:51.692Z,59.4
2018-09-03T12:01:41.179Z,59.4
2018-09-03T12:02:31.529Z,59.5
2018-09-03T12:03:21.284Z,59.5
2018-09-03T12:04:11.953Z,59.5
2018-09-03T12:05:01.990Z,59.5
2018-09-03T12:05:51.857Z,59.5
2018-09-03T12:06:42.732Z,59.5
2018-09-03T12:07:32.202Z,59.6
2018-09-03T12:08:21.984Z,59.6
2018-09-03T12:09:11.475Z,59.6
2018-09-03T12:10:02.769Z,59.6
2018-09-03T12:10:52.722Z,59.6
2018-09-03T12:11:42.504Z,59.6
2018-09-03T12:12:32.394Z,59.6
2018-09-03T12:13:23.189Z,59.6
2018-09-03T12:14:12.947Z,59.5
2018-09-03T12:15:02.782Z,59.5
2018-09-03T12:15:52.289Z,59.5
2018-09-03T12:16:42.920Z,59.5
2018-09-03T12:17:32.796Z,59.5
2018-09-03T12:18:22.748Z,59.5
2018-09-03T12:19:13.424Z,59.5
2018-09-03T12:20:03.469Z,59.5
2018-09-03T12:20:53.765Z,59.5
2018-09-03T12:21:43.031Z,59.4
2018-09-03T12:22:33.104Z,59.4
2018-09-03T12:23:23.437Z,59.4
2018-09-03T12:24:14.071Z,59.4
2018-09-03T12:25:03.573Z,59.4
2018-09-03T12:25:53.136Z,59.4
2018-09-03T12:26:43.712Z,59.4